Time;durP1;ratioP1;P1;durP2;ratioP2;P2;SDS_P1;SDS_P2;PMS_P1;PMS_P2;Temp;Humidity;BMP_temperature;BMP_pressure;BME280_temperature;BME280_humidity;BME280_pressure;Samples;Min_cycle;Max_cycle;Signal;HPM_P1;HPM_P2
2023/08/21 00:01:58;;;;;;;22.20;15.70;;;;;;;27.01;59.01;100173.98;108151;1253;60275;-67
2023/08/21 00:04:26;;;;;;;19.10;16.30;;;;;;;27.03;58.93;100170.95;108147;1253;73852;-66
2023/08/21 00:06:53;;;;;;;21.10;16.10;;;;;;;27.02;58.80;100171.17;108100;1253;69960;-67
2023/08/21 00:09:20;;;;;;;17.30;15.50;;;;;;;26.94;59.06;100174.59;108095;1253;72688;-67
2023/08/21 00:11:48;;;;;;;22.30;16.70;;;;;;;26.82;59.20;100176.52;108050;1254;60387;-67
2023/08/21 00:14:15;;;;;;;17.80;15.30;;;;;;;26.82;59.10;100177.06;108111;1257;60604;-68
2023/08/21 00:16:42;;;;;;;22.30;16.50;;;;;;;26.83;59.01;100180.04;108096;1253;74031;-67
2023/08/21 00:19:10;;;;;;;17.40;15.70;;;;;;;26.83;59.04;100181.48;108085;1253;70005;-67
2023/08/21 00:21:37;;;;;;;17.70;15.80;;;;;;;26.71;59.36;100181.08;108127;1253;72466;-69
2023/08/21 00:24:05;;;;;;;21.50;17.10;;;;;;;26.54;60.10;100180.02;108108;1254;61945;-67
2023/08/21 00:26:32;;;;;;;19.80;16.40;;;;;;;26.47;60.43;100183.51;108103;1253;60549;-67
2023/08/21 00:29:00;;;;;;;17.70;15.80;;;;;;;26.52;60.49;100189.00;108070;1254;74036;-68
2023/08/21 00:31:27;;;;;;;18.90;17.00;;;;;;;26.48;60.51;100184.75;108083;1253;70289;-68
2023/08/21 00:33:54;;;;;;;19.20;17.20;;;;;;;26.47;60.60;100192.05;108035;1259;71421;-67
2023/08/21 00:36:22;;;;;;;21.30;17.10;;;;;;;26.55;60.53;100189.99;108143;1253;61736;-67
2023/08/21 00:38:49;;;;;;;18.50;16.60;;;;;;;26.46;60.86;100188.52;108031;1259;60267;-68
2023/08/21 00:41:16;;;;;;;19.60;16.90;;;;;;;26.23;61.38;100186.74;108027;1253;73351;-67
2023/08/21 00:43:44;;;;;;;23.90;16.50;;;;;;;26.22;61.57;100187.37;108133;1253;69603;-67
2023/08/21 00:46:11;;;;;;;20.80;16.40;;;;;;;26.40;61.32;100185.95;108106;1252;71415;-67
2023/08/21 00:48:39;;;;;;;20.80;16.30;;;;;;;26.34;61.50;100185.79;108125;1253;62145;-67
2023/08/21 00:51:06;;;;;;;18.80;16.60;;;;;;;26.34;61.55;100183.89;108168;1253;60395;-67
2023/08/21 00:53:34;;;;;;;19.40;16.90;;;;;;;26.39;61.45;100183.86;108114;1253;73925;-67
2023/08/21 00:56:02;;;;;;;22.20;18.50;;;;;;;26.31;61.74;100184.73;107978;1253;70753;-67
2023/08/21 00:58:29;;;;;;;22.40;17.50;;;;;;;26.24;62.05;100182.73;107985;1254;72727;-66
2023/08/21 01:00:57;;;;;;;21.00;17.70;;;;;;;26.35;61.96;100184.47;108047;1253;61599;-67
2023/08/21 01:03:25;;;;;;;19.70;16.30;;;;;;;26.41;61.93;100180.56;107966;1253;59975;-67
2023/08/21 01:05:52;;;;;;;19.30;16.30;;;;;;;26.48;61.58;100174.80;108137;1252;73119;-68
2023/08/21 01:08:26;;;;;;;18.20;15.80;;;;;;;26.41;61.90;100175.71;107827;1253;70268;-68
2023/08/21 01:11:19;;;;;;;19.70;16.10;;;;;;;26.19;62.70;100175.97;108020;1253;71188;-68
2023/08/21 01:14:10;;;;;;;18.20;16.00;;;;;;;26.29;62.16;100174.98;107967;1253;60474;-67
2023/08/21 01:16:38;;;;;;;22.10;15.80;;;;;;;26.14;62.83;100174.45;107773;1253;60583;-67
2023/08/21 01:19:09;;;;;;;18.40;16.60;;;;;;;26.20;62.86;100175.69;107948;1253;73860;-68
2023/08/21 01:21:36;;;;;;;23.30;16.80;;;;;;;26.20;62.86;100176.82;108063;1253;69030;-68
2023/08/21 01:24:04;;;;;;;18.90;16.10;;;;;;;26.16;63.15;100175.95;107777;1255;72522;-67
2023/08/21 01:26:31;;;;;;;20.10;17.30;;;;;;;26.11;63.29;100174.96;108013;1253;61793;-67
2023/08/21 01:28:58;;;;;;;20.10;15.40;;;;;;;26.21;63.20;100178.74;108068;1253;60342;-67
2023/08/21 01:31:28;;;;;;;23.50;15.90;;;;;;;26.32;63.07;100179.52;108009;1259;72853;-67
2023/08/21 01:34:01;;;;;;;18.10;15.70;;;;;;;26.40;62.91;100181.03;107878;1253;70278;-68
2023/08/21 01:36:30;;;;;;;18.60;14.90;;;;;;;26.43;62.78;100186.69;108021;1254;72682;-68
2023/08/21 01:38:58;;;;;;;17.60;15.20;;;;;;;26.37;63.20;100186.38;108075;1253;61615;-68
2023/08/21 01:41:25;;;;;;;19.90;14.80;;;;;;;26.44;62.85;100187.64;107896;1253;60645;-68
2023/08/21 01:43:53;;;;;;;20.20;15.40;;;;;;;26.45;62.85;100188.27;107988;1253;73879;-66
2023/08/21 01:46:21;;;;;;;17.40;15.70;;;;;;;26.63;62.17;100186.78;107989;1253;69763;-67
2023/08/21 01:48:48;;;;;;;17.50;15.50;;;;;;;26.77;61.72;100188.55;107961;1257;71883;-68
2023/08/21 01:51:16;;;;;;;18.90;14.80;;;;;;;26.91;61.47;100189.46;107983;1253;61738;-67
2023/08/21 01:53:44;;;;;;;18.30;15.60;;;;;;;26.77;61.69;100189.64;108024;1253;60329;-67
2023/08/21 01:56:11;;;;;;;18.30;15.00;;;;;;;26.74;61.89;100195.01;108059;1253;73816;-69
2023/08/21 01:58:39;;;;;;;16.60;13.50;;;;;;;26.66;62.02;100194.27;108101;1253;69184;-69
2023/08/21 02:01:08;;;;;;;17.60;14.80;;;;;;;26.66;61.85;100191.02;107980;1253;71409;-67
2023/08/21 02:03:35;;;;;;;15.70;14.00;;;;;;;26.66;61.96;100189.97;108012;1253;60935;-66
2023/08/21 02:06:03;;;;;;;16.40;14.70;;;;;;;26.58;62.13;100194.00;108037;1253;60429;-67
2023/08/21 02:08:34;;;;;;;16.20;14.50;;;;;;;26.64;62.24;100193.19;108127;1253;73804;-67
2023/08/21 02:11:02;;;;;;;16.60;14.80;;;;;;;26.75;62.01;100193.98;108114;1257;70435;-67
2023/08/21 02:13:29;;;;;;;17.00;14.70;;;;;;;26.70;62.20;100193.48;108138;1253;72735;-66
2023/08/21 02:15:56;;;;;;;17.40;15.00;;;;;;;26.79;61.93;100197.22;107900;1253;60379;-67
2023/08/21 02:18:24;;;;;;;15.70;14.10;;;;;;;26.86;61.76;100194.81;107901;1259;60637;-68
2023/08/21 02:20:52;;;;;;;17.50;15.10;;;;;;;26.79;61.95;100197.92;107896;1253;73807;-67
2023/08/21 02:23:19;;;;;;;18.10;16.10;;;;;;;26.86;61.90;100194.71;107971;1253;69999;-67
2023/08/21 02:25:48;;;;;;;17.80;15.30;;;;;;;26.88;61.74;100193.71;108253;1253;72728;-67
2023/08/21 02:28:16;;;;;;;17.70;15.80;;;;;;;26.79;62.14;100197.38;108010;1254;61720;-67
2023/08/21 02:30:44;;;;;;;16.80;14.70;;;;;;;26.80;61.96;100195.80;107995;1253;60286;-65
2023/08/21 02:33:12;;;;;;;17.70;15.10;;;;;;;26.66;62.31;100193.92;108015;1253;73885;-68
2023/08/21 02:35:40;;;;;;;17.50;15.30;;;;;;;26.63;62.55;100196.91;107972;1253;70162;-67
2023/08/21 02:38:07;;;;;;;16.70;14.90;;;;;;;26.65;62.70;100196.52;108027;1253;71385;-67
2023/08/21 02:40:35;;;;;;;16.60;14.70;;;;;;;26.76;62.25;100203.27;107948;1253;61989;-66
2023/08/21 02:43:03;;;;;;;17.20;15.40;;;;;;;26.76;61.93;100201.48;107877;1260;60415;-67
2023/08/21 02:45:30;;;;;;;17.90;15.80;;;;;;;26.88;61.35;100199.84;108063;1253;72730;-68
2023/08/21 02:47:58;;;;;;;19.30;16.20;;;;;;;26.72;61.90;100199.40;108009;1253;70319;-67
2023/08/21 02:50:25;;;;;;;17.20;15.30;;;;;;;26.67;61.93;100201.36;107901;1256;72721;-69
2023/08/21 02:52:53;;;;;;;18.60;16.00;;;;;;;26.48;62.47;100196.64;107968;1253;60359;-68
2023/08/21 02:55:20;;;;;;;18.90;15.90;;;;;;;26.53;62.48;100197.52;107982;1253;60396;-68
2023/08/21 02:57:48;;;;;;;18.00;15.80;;;;;;;26.56;62.36;100194.02;108020;1253;73083;-68
2023/08/21 03:00:16;;;;;;;19.20;15.20;;;;;;;26.43;62.53;100192.09;107976;1253;69985;-67
2023/08/21 03:02:43;;;;;;;20.60;14.80;;;;;;;26.25;63.29;100192.99;108034;1253;72765;-68
2023/08/21 03:05:11;;;;;;;17.30;15.50;;;;;;;26.15;63.65;100193.73;108078;1253;62034;-68
2023/08/21 03:07:39;;;;;;;16.10;14.20;;;;;;;26.24;63.63;100192.45;108083;1258;60560;-69
2023/08/21 03:10:07;;;;;;;18.80;15.90;;;;;;;26.24;63.68;100191.16;108073;1253;73842;-67
2023/08/21 03:12:34;;;;;;;18.30;16.30;;;;;;;26.39;63.34;100190.85;108061;1252;70127;-68
2023/08/21 03:15:03;;;;;;;17.90;13.80;;;;;;;26.31;63.70;100191.16;108036;1254;72332;-68
2023/08/21 03:17:31;;;;;;;20.00;16.70;;;;;;;26.51;63.03;100189.83;108047;1253;60325;-68
2023/08/21 03:19:59;;;;;;;17.60;15.80;;;;;;;26.44;63.38;100186.35;108010;1253;59548;-68
2023/08/21 03:22:27;;;;;;;17.90;15.20;;;;;;;26.49;63.66;100186.97;107993;1253;73096;-67
2023/08/21 03:24:54;;;;;;;18.10;15.00;;;;;;;26.62;63.68;100187.23;108094;1256;69313;-66
2023/08/21 03:27:21;;;;;;;18.30;15.40;;;;;;;26.81;63.36;100186.38;107902;1253;72488;-67
2023/08/21 03:29:49;;;;;;;16.80;14.50;;;;;;;26.90;63.29;100187.58;107941;1253;60518;-67
2023/08/21 03:32:17;;;;;;;16.80;14.10;;;;;;;27.14;62.92;100188.83;107928;1253;60319;-67
2023/08/21 03:34:44;;;;;;;16.00;14.40;;;;;;;27.42;62.06;100188.79;107973;1253;73209;-67
2023/08/21 03:37:12;;;;;;;23.50;14.10;;;;;;;27.51;61.97;100192.49;108038;1253;70486;-67
2023/08/21 03:39:39;;;;;;;19.60;12.80;;;;;;;27.71;61.40;100189.61;108009;1253;72690;-69
2023/08/21 03:42:08;;;;;;;14.10;12.60;;;;;;;27.91;61.01;100188.91;107896;1253;60744;-67
2023/08/21 03:44:37;;;;;;;14.40;12.90;;;;;;;28.16;59.83;100187.47;108026;1253;60283;-67
2023/08/21 03:47:05;;;;;;;13.40;12.00;;;;;;;28.10;59.39;100189.16;108023;1253;72690;-68
2023/08/21 03:49:36;;;;;;;13.90;12.40;;;;;;;28.10;59.47;100188.27;108014;1253;68463;-67
2023/08/21 03:52:04;;;;;;;16.20;13.20;;;;;;;28.40;58.82;100184.98;108061;1253;72754;-67
2023/08/21 03:54:31;;;;;;;14.80;11.00;;;;;;;28.72;58.12;100189.55;108076;1257;61767;-68
2023/08/21 03:56:58;;;;;;;15.40;12.50;;;;;;;29.19;56.91;100191.11;107763;1253;176025;-67
2023/08/21 04:01:13;;;;;;;15.60;11.90;;;;;;;28.19;59.72;100197.38;104771;1291;600812;-66
2023/08/21 04:03:41;;;;;;;20.50;12.20;;;;;;;29.39;56.19;100192.58;107291;1266;60399;-67
2023/08/21 04:06:08;;;;;;;13.30;11.90;;;;;;;29.79;55.09;100191.36;107264;1266;60053;-67
2023/08/21 04:08:35;;;;;;;16.90;11.40;;;;;;;29.97;54.06;100195.85;107244;1264;72222;-68
2023/08/21 04:11:03;;;;;;;12.30;10.10;;;;;;;30.01;53.69;100192.80;107277;1266;69506;-67
2023/08/21 04:13:31;;;;;;;13.40;10.10;;;;;;;30.13;53.02;100198.26;107285;1266;72737;-67
2023/08/21 04:15:58;;;;;;;14.50;10.20;;;;;;;30.28;52.38;100194.27;107221;1263;215067;-68
2023/08/21 04:18:26;;;;;;;12.60;10.60;;;;;;;30.28;52.02;100193.73;107375;1262;59273;-69
2023/08/21 04:21:09;;;;;;;14.90;10.90;;;;;;;30.40;51.65;100193.67;108084;1253;71088;-68
2023/08/21 04:23:37;;;;;;;13.70;9.90;;;;;;;30.39;51.06;100194.90;107983;1254;68892;-68
2023/08/21 04:26:04;;;;;;;13.40;11.10;;;;;;;30.31;50.96;100195.05;107890;1256;72327;-68
2023/08/21 04:28:32;;;;;;;14.20;10.60;;;;;;;30.21;51.12;100195.31;107780;1256;60484;-70
2023/08/21 04:31:00;;;;;;;12.30;11.00;;;;;;;29.99;51.38;100198.92;107690;1255;59547;-68
2023/08/21 04:33:28;;;;;;;14.40;11.10;;;;;;;29.82;51.62;100198.76;107718;1256;72723;-67
2023/08/21 04:35:56;;;;;;;14.30;11.00;;;;;;;29.65;52.03;100202.21;107787;1262;68718;-67
2023/08/21 04:38:23;;;;;;;13.90;10.80;;;;;;;29.74;52.21;100199.25;107690;1256;72668;-68
2023/08/21 04:40:51;;;;;;;12.10;10.90;;;;;;;29.80;52.42;100196.50;107705;1256;60450;-66
2023/08/21 04:43:18;;;;;;;11.20;10.10;;;;;;;30.09;51.94;100196.53;107817;1255;60049;-67
2023/08/21 04:45:50;;;;;;;13.10;10.50;;;;;;;30.40;51.16;100193.43;107977;1253;71246;-70
2023/08/21 04:48:19;;;;;;;14.20;10.00;;;;;;;30.45;50.75;100196.44;108054;1253;69927;-68
2023/08/21 04:50:47;;;;;;;11.70;10.40;;;;;;;30.70;50.62;100196.33;108094;1253;72237;-70
2023/08/21 04:53:14;;;;;;;12.00;9.90;;;;;;;30.96;49.77;100198.69;108123;1256;61273;-67
2023/08/21 04:55:42;;;;;;;10.60;9.50;;;;;;;31.42;49.10;100200.20;108055;1258;59561;-68
2023/08/21 04:58:10;;;;;;;16.60;8.90;;;;;;;31.63;48.51;100198.55;108151;1252;71589;-68
2023/08/21 05:00:38;;;;;;;18.30;9.20;;;;;;;32.02;47.58;100197.95;108141;1252;70736;-68
2023/08/21 05:03:06;;;;;;;12.80;9.10;;;;;;;32.41;46.83;100197.92;108355;1253;72720;-67
2023/08/21 05:05:38;;;;;;;10.40;8.60;;;;;;;32.75;45.97;100193.91;108622;1252;59597;-69
2023/08/21 05:08:06;;;;;;;9.90;8.90;;;;;;;33.11;45.07;100196.27;108672;1252;59411;-68
2023/08/21 05:10:33;;;;;;;10.10;8.10;;;;;;;33.48;44.31;100202.23;108462;1258;62867;-69
2023/08/21 05:13:01;;;;;;;12.40;9.00;;;;;;;33.64;43.81;100199.67;108086;1253;61957;-68
2023/08/21 05:15:29;;;;;;;13.70;8.60;;;;;;;33.82;43.37;100200.38;108092;1253;63792;-69
2023/08/21 05:17:56;;;;;;;10.50;8.50;;;;;;;33.94;43.10;100198.97;108112;1253;59517;-68
2023/08/21 05:20:23;;;;;;;12.70;8.60;;;;;;;34.18;42.32;100196.77;108106;1253;59670;-68
2023/08/21 05:22:51;;;;;;;9.40;7.90;;;;;;;34.43;42.08;100197.55;108060;1253;64127;-68
2023/08/21 05:25:18;;;;;;;11.80;8.50;;;;;;;34.62;41.65;100199.67;108031;1253;61560;-68
2023/08/21 05:27:46;;;;;;;11.70;8.10;;;;;;;34.91;40.94;100195.09;107996;1254;63681;-69
2023/08/21 05:30:15;;;;;;;10.60;8.10;;;;;;;35.06;40.64;100195.34;107876;1253;59516;-68
2023/08/21 05:32:42;;;;;;;11.00;9.00;;;;;;;35.18;40.21;100192.24;108093;1253;58972;-69
2023/08/21 05:35:10;;;;;;;7.70;6.90;;;;;;;35.37;40.23;100193.81;107919;1253;62889;-68
2023/08/21 05:37:38;;;;;;;11.50;7.90;;;;;;;35.58;39.65;100194.31;108039;1253;60089;-68
2023/08/21 05:40:07;;;;;;;9.00;7.40;;;;;;;35.82;38.94;100194.64;107924;1256;62563;-69
2023/08/21 05:42:35;;;;;;;9.00;8.00;;;;;;;35.97;38.57;100194.02;107954;1256;59538;-68
2023/08/21 05:45:04;;;;;;;11.40;8.20;;;;;;;36.04;38.55;100193.34;108010;1253;59488;-68
2023/08/21 05:47:32;;;;;;;8.20;7.30;;;;;;;36.16;38.25;100192.39;107777;1253;64114;-69
2023/08/21 05:50:00;;;;;;;9.50;7.80;;;;;;;36.28;37.97;100191.91;108049;1253;61913;-67
2023/08/21 05:52:28;;;;;;;9.50;8.00;;;;;;;36.34;37.55;100193.80;107954;1253;63851;-68
2023/08/21 05:54:55;;;;;;;9.00;8.10;;;;;;;36.52;37.64;100196.42;108020;1253;59064;-68
2023/08/21 05:57:23;;;;;;;8.70;7.80;;;;;;;36.77;37.09;100193.70;107997;1253;59215;-69
2023/08/21 05:59:51;;;;;;;11.10;8.10;;;;;;;37.15;36.77;100194.14;108042;1253;63076;-69
2023/08/21 06:02:18;;;;;;;9.30;7.50;;;;;;;37.51;36.31;100193.98;108055;1253;60128;-68
2023/08/21 06:04:46;;;;;;;12.40;7.40;;;;;;;37.83;35.63;100192.73;107919;1255;63895;-67
2023/08/21 06:07:15;;;;;;;14.40;7.80;;;;;;;38.08;35.11;100195.02;107967;1253;59574;-69
2023/08/21 06:09:42;;;;;;;10.00;7.40;;;;;;;38.41;34.29;100192.91;108022;1258;62195;-68
2023/08/21 06:12:09;;;;;;;8.80;7.80;;;;;;;38.39;34.10;100193.25;107996;1253;64065;-68
2023/08/21 06:14:38;;;;;;;8.10;7.20;;;;;;;38.11;34.22;100195.32;108092;1253;60125;-68
2023/08/21 06:17:06;;;;;;;8.10;7.00;;;;;;;37.92;34.25;100197.41;107980;1253;62477;-69
2023/08/21 06:19:33;;;;;;;7.90;6.80;;;;;;;37.82;34.32;100196.51;107948;1253;59711;-68
2023/08/21 06:22:01;;;;;;;9.20;8.30;;;;;;;37.56;35.04;100201.09;108046;1253;59634;-68
2023/08/21 06:24:29;;;;;;;11.40;8.60;;;;;;;37.29;35.34;100199.51;108083;1253;64132;-68
2023/08/21 06:27:00;;;;;;;13.70;8.80;;;;;;;37.22;35.62;100206.05;108062;1253;61621;-68
2023/08/21 06:29:28;;;;;;;12.50;8.60;;;;;;;37.13;35.90;100206.22;107982;1252;62471;-69
2023/08/21 06:31:56;;;;;;;11.30;8.80;;;;;;;37.22;35.99;100210.70;108042;1255;59495;-70
2023/08/21 06:34:23;;;;;;;9.40;7.40;;;;;;;37.22;36.16;100209.56;107943;1259;59527;-68
2023/08/21 06:36:51;;;;;;;8.70;7.70;;;;;;;37.42;35.43;100210.29;108061;1253;62815;-69
2023/08/21 06:39:20;;;;;;;9.60;8.70;;;;;;;37.93;34.78;100210.60;108069;1253;60433;-69
2023/08/21 06:41:48;;;;;;;9.90;7.80;;;;;;;38.51;33.73;100205.27;108044;1253;63752;-68
2023/08/21 06:44:18;;;;;;;8.50;7.10;;;;;;;39.01;33.08;100204.15;107971;1252;59627;-69
2023/08/21 06:46:45;;;;;;;10.40;7.20;;;;;;;39.48;32.73;100205.86;108070;1255;59523;-71
2023/08/21 06:49:13;;;;;;;13.10;7.60;;;;;;;39.82;31.91;100203.98;108029;1258;64099;-69
2023/08/21 06:51:40;;;;;;;11.50;7.60;;;;;;;40.03;31.52;100202.09;108010;1253;61471;-69
2023/08/21 06:54:08;;;;;;;8.30;6.80;;;;;;;40.25;31.18;100198.45;107993;1253;63817;-69
2023/08/21 06:56:35;;;;;;;10.10;7.20;;;;;;;40.44;30.50;100197.00;108060;1253;59544;-69
2023/08/21 06:59:03;;;;;;;8.70;6.80;;;;;;;40.75;30.27;100196.54;108027;1253;59208;-69
2023/08/21 07:01:30;;;;;;;7.20;6.50;;;;;;;41.07;29.77;100195.26;108067;1254;63165;-69
2023/08/21 07:03:58;;;;;;;7.90;6.90;;;;;;;41.40;29.67;100193.73;108032;1255;60286;-69
2023/08/21 07:06:27;;;;;;;10.70;6.60;;;;;;;41.78;28.99;100198.19;108016;1254;74889;-69
2023/08/21 07:08:55;;;;;;;10.60;6.30;;;;;;;41.97;28.59;100192.41;108065;1255;59185;-68
2023/08/21 07:11:22;;;;;;;10.00;6.70;;;;;;;42.30;27.95;100191.45;108010;1253;59814;-70
2023/08/21 07:13:50;;;;;;;6.80;6.10;;;;;;;42.24;27.31;100189.54;108042;1253;66574;-69
2023/08/21 07:16:17;;;;;;;8.10;6.00;;;;;;;42.13;28.06;100187.84;107915;1253;68947;-69
2023/08/21 07:18:45;;;;;;;6.70;6.10;;;;;;;42.37;27.63;100188.64;108017;1253;63736;-69
2023/08/21 07:21:12;;;;;;;8.50;6.50;;;;;;;42.66;27.11;100185.46;107975;1253;59104;-70
2023/08/21 07:23:58;;;;;;;7.20;5.80;;;;;;;42.75;27.01;100184.29;108017;1258;59929;-70
2023/08/21 07:26:26;;;;;;;9.00;5.90;;;;;;;42.86;26.83;100182.32;108085;1253;62911;-69
2023/08/21 07:28:54;;;;;;;8.20;6.00;;;;;;;42.97;26.22;100180.48;108095;1253;60979;-71
2023/08/21 07:31:22;;;;;;;8.10;6.20;;;;;;;42.93;26.00;100179.53;108050;1253;62451;-71
2023/08/21 07:33:49;;;;;;;9.00;6.20;;;;;;;42.90;26.39;100180.02;108093;1253;62096;-69
2023/08/21 07:36:17;;;;;;;12.50;6.70;;;;;;;42.82;26.82;100177.85;108093;1253;59373;-69
2023/08/21 07:38:45;;;;;;;11.70;6.10;;;;;;;42.82;26.58;100178.09;108037;1253;64119;-70
2023/08/21 07:41:12;;;;;;;7.50;5.40;;;;;;;43.02;26.40;100182.79;108126;1257;60283;-69
2023/08/21 07:43:41;;;;;;;11.60;5.80;;;;;;;43.29;25.71;100186.34;108063;1254;64371;-69
2023/08/21 07:46:13;;;;;;;9.30;5.90;;;;;;;42.84;25.69;100183.14;108036;1253;59521;-69
2023/08/21 07:48:43;;;;;;;8.00;6.10;;;;;;;42.55;26.06;100183.52;108119;1253;59564;-69
2023/08/21 07:51:10;;;;;;;9.70;5.50;;;;;;;42.51;26.38;100179.34;108081;1257;64283;-70
2023/08/21 07:53:38;;;;;;;10.00;5.70;;;;;;;42.82;26.14;100178.26;108110;1253;60206;-70
2023/08/21 07:56:06;;;;;;;7.10;5.60;;;;;;;43.03;25.99;100175.20;108044;1257;63148;-71
2023/08/21 07:58:34;;;;;;;8.00;5.40;;;;;;;43.31;25.74;100172.05;108076;1252;60003;-70
2023/08/21 08:01:01;;;;;;;9.80;5.30;;;;;;;43.57;25.47;100175.77;108155;1257;59691;-70
2023/08/21 08:03:29;;;;;;;7.60;5.20;;;;;;;43.86;25.12;100176.48;108147;1253;64041;-71
2023/08/21 08:05:57;;;;;;;5.70;4.60;;;;;;;44.13;24.79;100173.61;108098;1253;60282;-70
2023/08/21 08:08:29;;;;;;;7.40;4.70;;;;;;;44.41;23.98;100173.48;108092;1253;63734;-70
2023/08/21 08:11:01;;;;;;;6.80;4.70;;;;;;;44.70;23.51;100172.81;108127;1253;60496;-70
2023/08/21 08:13:28;;;;;;;8.40;4.60;;;;;;;44.68;23.43;100179.05;108126;1253;60154;-70
2023/08/21 08:15:55;;;;;;;6.80;4.70;;;;;;;44.58;23.31;100175.13;108147;1253;66929;-70
2023/08/21 08:18:23;;;;;;;7.60;4.80;;;;;;;44.52;23.68;100173.81;108126;1252;60186;-70
2023/08/21 08:20:52;;;;;;;7.10;5.10;;;;;;;44.44;23.88;100174.92;108124;1253;63707;-69
2023/08/21 08:23:20;;;;;;;6.50;4.80;;;;;;;44.56;24.17;100174.02;108141;1257;60962;-70
2023/08/21 08:25:48;;;;;;;8.00;5.00;;;;;;;44.70;24.00;100175.76;108073;1253;60511;-70
2023/08/21 08:28:15;;;;;;;6.80;4.80;;;;;;;45.01;23.52;100174.61;108188;1252;64851;-69
2023/08/21 08:30:42;;;;;;;7.20;4.50;;;;;;;45.33;23.04;100168.95;108223;1253;61375;-70
2023/08/21 08:33:10;;;;;;;9.20;4.90;;;;;;;45.47;22.77;100167.98;108154;1253;63696;-70
2023/08/21 08:35:37;;;;;;;7.80;5.20;;;;;;;45.35;22.69;100171.95;108117;1253;58967;-70
2023/08/21 08:38:05;;;;;;;8.30;5.00;;;;;;;45.26;22.80;100166.71;108120;1253;59011;-70
2023/08/21 08:40:32;;;;;;;10.30;5.10;;;;;;;44.96;22.98;100165.23;107983;1253;63711;-70
2023/08/21 08:42:59;;;;;;;6.10;4.70;;;;;;;44.66;23.22;100166.05;108062;1258;60458;-70
2023/08/21 08:45:30;;;;;;;8.50;4.60;;;;;;;44.48;23.38;100164.09;107994;1254;62419;-69
2023/08/21 08:48:04;;;;;;;6.70;4.90;;;;;;;44.68;23.50;100162.60;107894;1253;60347;-69
2023/08/21 08:50:31;;;;;;;7.00;4.70;;;;;;;44.87;23.03;100162.66;108048;1253;60289;-70
2023/08/21 08:53:00;;;;;;;10.70;4.70;;;;;;;44.97;22.56;100162.16;108013;1256;64969;-70
2023/08/21 08:55:43;;;;;;;8.70;4.40;;;;;;;44.95;22.32;100164.02;107955;1253;61465;-69
2023/08/21 08:58:10;;;;;;;6.90;4.20;;;;;;;44.79;22.14;100159.96;107871;1254;62558;-71
2023/08/21 09:00:37;;;;;;;9.00;4.60;;;;;;;44.82;22.21;100158.13;108109;1253;60558;-70
2023/08/21 09:03:06;;;;;;;6.50;4.50;;;;;;;44.82;22.35;100157.23;108066;1253;60309;-70
2023/08/21 09:05:33;;;;;;;7.40;4.60;;;;;;;44.99;22.17;100154.39;107932;1253;64883;-71
2023/08/21 09:08:13;;;;;;;6.00;4.70;;;;;;;45.07;21.99;100151.90;107984;1253;61560;-70
2023/08/21 09:10:41;;;;;;;7.50;4.70;;;;;;;45.03;21.74;100151.81;107991;1253;64366;-70
2023/08/21 09:13:17;;;;;;;12.80;5.40;;;;;;;44.57;21.72;100145.40;108169;1253;60512;-70
2023/08/21 09:15:53;;;;;;;10.30;4.20;;;;;;;44.28;22.25;100153.45;108130;1253;60343;-70
2023/08/21 09:18:21;;;;;;;7.00;4.40;;;;;;;44.20;22.57;100151.14;108051;1253;64981;-70
2023/08/21 09:20:48;;;;;;;10.50;4.80;;;;;;;44.14;22.14;100144.65;108035;1253;60540;-70
2023/08/21 09:23:17;;;;;;;11.10;4.60;;;;;;;44.25;22.14;100146.58;108163;1252;62457;-70
2023/08/21 09:25:48;;;;;;;7.50;4.50;;;;;;;44.39;21.80;100149.34;108121;1253;60410;-69
2023/08/21 09:28:22;;;;;;;7.80;4.40;;;;;;;44.41;21.63;100147.16;108121;1255;59180;-70
2023/08/21 09:30:51;;;;;;;7.90;4.70;;;;;;;44.20;21.84;100146.80;108182;1253;66044;-70
2023/08/21 09:33:21;;;;;;;7.60;4.50;;;;;;;44.17;21.56;100148.98;108140;1253;61346;-71
2023/08/21 09:35:50;;;;;;;6.80;4.70;;;;;;;44.35;21.76;100146.17;108104;1256;63688;-70
2023/08/21 09:38:18;;;;;;;8.20;3.90;;;;;;;44.58;21.47;100141.97;108137;1253;59119;-70
2023/08/21 09:40:53;;;;;;;6.80;4.20;;;;;;;44.77;21.03;100136.02;108095;1253;60415;-69
2023/08/21 09:43:22;;;;;;;5.30;4.10;;;;;;;44.80;21.06;100134.12;108129;1253;63687;-70
2023/08/21 09:45:57;;;;;;;8.90;4.20;;;;;;;44.84;21.35;100135.88;108186;1253;61756;-69
2023/08/21 09:48:29;;;;;;;8.00;4.20;;;;;;;44.84;21.26;100135.72;108101;1257;62461;-71
2023/08/21 09:50:57;;;;;;;5.20;4.00;;;;;;;44.94;21.15;100131.19;108180;1253;59135;-71
2023/08/21 09:53:25;;;;;;;6.00;4.00;;;;;;;44.90;21.32;100130.42;108068;1253;60378;-70
2023/08/21 09:55:54;;;;;;;8.30;4.60;;;;;;;44.83;21.30;100132.72;108064;1253;63660;-70
2023/08/21 09:58:22;;;;;;;5.80;4.40;;;;;;;44.75;21.32;100134.75;108126;1253;61700;-70
2023/08/21 10:00:49;;;;;;;5.30;4.60;;;;;;;44.76;21.16;100130.13;108109;1255;63735;-70
2023/08/21 10:03:18;;;;;;;8.20;4.50;;;;;;;44.81;21.17;100124.55;108160;1253;60323;-69
2023/08/21 10:05:48;;;;;;;10.10;4.50;;;;;;;44.96;21.00;100126.61;108163;1253;60361;-70
2023/08/21 10:08:16;;;;;;;4.50;4.10;;;;;;;45.08;21.12;100120.48;108106;1253;63667;-70
2023/08/21 10:10:43;;;;;;;6.10;4.10;;;;;;;44.97;21.38;100124.01;108079;1253;61519;-69
2023/08/21 10:13:11;;;;;;;8.60;4.20;;;;;;;45.35;21.08;100125.96;108123;1253;63731;-70
2023/08/21 10:15:38;;;;;;;6.30;4.00;;;;;;;45.53;20.66;100124.33;108152;1253;60450;-69
2023/08/21 10:18:29;;;;;;;9.30;4.20;;;;;;;45.50;20.48;100124.64;107933;1253;60407;-70
2023/08/21 10:20:56;;;;;;;9.20;4.20;;;;;;;45.33;20.37;100122.09;108133;1252;65273;-70
2023/08/21 10:23:28;;;;;;;5.40;4.10;;;;;;;45.24;20.28;100117.19;108073;1253;61330;-70
2023/08/21 10:25:57;;;;;;;5.30;3.90;;;;;;;45.39;20.18;100111.60;108121;1253;63719;-70
2023/08/21 10:29:06;;;;;;;8.10;4.10;;;;;;;45.34;19.95;100109.69;108106;1253;60416;-71
2023/08/21 10:31:43;;;;;;;6.60;4.20;;;;;;;45.41;20.41;100113.14;107858;1253;59151;-70
2023/08/21 10:34:12;;;;;;;7.60;4.70;;;;;;;45.31;20.77;100109.09;108123;1252;64914;-70
2023/08/21 10:36:43;;;;;;;8.80;4.10;;;;;;;45.27;20.64;100106.28;108162;1253;61439;-70
2023/08/21 10:39:18;;;;;;;7.90;4.40;;;;;;;45.16;20.57;100107.45;108103;1253;62492;-70
2023/08/21 10:41:56;;;;;;;9.20;4.30;;;;;;;44.78;20.89;100108.19;108083;1256;60324;-69
2023/08/21 10:44:58;;;;;;;5.60;3.90;;;;;;;44.43;21.04;100109.08;108161;1253;60172;-69
2023/08/21 10:47:26;;;;;;;6.10;3.80;;;;;;;44.03;21.36;100110.34;107895;1253;64888;-69
2023/08/21 10:49:58;;;;;;;5.20;4.00;;;;;;;43.71;21.57;100108.98;108133;1253;61658;-69
2023/08/21 10:52:37;;;;;;;7.10;4.00;;;;;;;43.49;21.63;100112.43;108174;1253;62600;-69
2023/08/21 10:55:06;;;;;;;7.80;4.40;;;;;;;43.53;21.68;100109.45;108153;1257;60329;-68
2023/08/21 10:57:33;;;;;;;5.80;4.10;;;;;;;43.55;21.87;100110.16;108125;1253;58557;-70
2023/08/21 11:00:11;;;;;;;4.90;4.00;;;;;;;43.74;21.56;100104.81;108128;1253;65154;-69
2023/08/21 11:02:43;;;;;;;4.70;4.10;;;;;;;43.78;21.57;100096.55;108167;1253;60304;-69
2023/08/21 11:05:11;;;;;;;9.40;4.30;;;;;;;43.66;21.58;100097.17;108151;1253;63903;-70
2023/08/21 11:07:40;;;;;;;8.30;4.10;;;;;;;43.34;22.09;100103.59;108176;1257;60518;-70
2023/08/21 11:10:09;;;;;;;5.30;3.90;;;;;;;43.16;22.46;100104.32;108206;1252;60316;-70
2023/08/21 11:12:39;;;;;;;10.60;4.40;;;;;;;42.75;22.16;100100.89;108053;1253;65537;-69
2023/08/21 11:15:07;;;;;;;5.60;4.00;;;;;;;42.62;22.41;100105.11;108082;1253;61358;-72
2023/08/21 11:17:34;;;;;;;5.10;3.50;;;;;;;42.79;22.53;100099.04;108193;1253;62470;-69
2023/08/21 11:20:04;;;;;;;8.70;4.00;;;;;;;43.00;22.54;100093.63;108160;1253;60380;-69